This is the latest recevied weather packets stored in our database for station/object IW4DZV-13. If no packets are shown the sender has not sent any weather packets the latest 10 day(s).
| Time | Temp. | Humidity | Pressure | Rain* | Wind** | Luminosity | Snow |
|---|---|---|---|---|---|---|---|
| 1787814053 | 25° C | 86% | 1016.2 hPa | 0 mm | - | 283 W/m² | - |
| 1787813162 | 23.89° C | 89% | 1016.3 hPa | 0 mm | - | 267 W/m² | - |
| 1787812249 | 22.78° C | 91% | 1016.3 hPa | 0 mm | - | 190 W/m² | - |
| 1787811347 | 22.22° C | 92% | 1016.5 hPa | 0 mm | - | 127 W/m² | - |
| 1787810444 | 21.67° C | 92% | 1016.4 hPa | 0 mm | - | 67 W/m² | - |
| 1787809542 | 21.67° C | 92% | 1016.3 hPa | 0 mm | - | 62 W/m² | - |
| 1787808641 | 21.11° C | 92% | 1016.2 hPa | 0 mm | - | 47 W/m² | - |
| 1787807744 | 21.11° C | 92% | 1016.1 hPa | 0 mm | - | 39 W/m² | - |
| 1787806849 | 21.11° C | 92% | 1015.6 hPa | 0 mm | - | 25 W/m² | - |
| 1787805934 | 21.11° C | 92% | 1015.5 hPa | 0 mm | - | 11 W/m² | - |
| 1787805034 | 21.11° C | 92% | 1015.5 hPa | 0 mm | - | 0 W/m² | - |
| 1787804133 | 21.11° C | 92% | 1015.5 hPa | 0 mm | - | 0 W/m² | - |
| 1787803231 | 21.11° C | 91% | 1015.5 hPa | 0 mm | - | 0 W/m² | - |
| 1787802330 | 21.11° C | 91% | 1015.8 hPa | 0 mm | - | 0 W/m² | - |
| 1787801433 | 21.11° C | 91% | 1015.6 hPa | 0 mm | - | 0 W/m² | - |
| 1787800528 | 21.67° C | 91% | 1015.6 hPa | 0 mm | - | 0 W/m² | - |
| 1787799628 | 21.67° C | 91% | 1015.3 hPa | 0 mm | - | 0 W/m² | - |
| 1787798735 | 21.67° C | 91% | 1015.4 hPa | 0 mm | - | 0 W/m² | - |
| 1787797828 | 21.67° C | 91% | 1015.3 hPa | 0 mm | - | 0 W/m² | - |
| 1787796926 | 21.67° C | 90% | 1015.1 hPa | 0 mm | - | 0 W/m² | - |
| 1787796026 | 21.67° C | 90% | 1015.1 hPa | 0 mm | - | 0 W/m² | - |
| 1787795142 | 21.67° C | 90% | 1015.2 hPa | 0 mm | - | 0 W/m² | - |
| 1787794222 | 21.67° C | 90% | 1015.3 hPa | 0 mm | - | 0 W/m² | - |
| 1787793322 | 21.67° C | 89% | 1015.3 hPa | 0 mm | - | 0 W/m² | - |
| 1787792421 | 22.22° C | 89% | 1015.3 hPa | 0 mm | - | 0 W/m² | - |
* Rain since midnight (hover to see other rain measurements)
** Current wind speed in m/s (hover to see current wind gust speed)